sensor_id;sensor_type;location;lat;lon;timestamp;P1;durP1;ratioP1;P2;durP2;ratioP2
9140;SDS011;46330;50.822;7.126;2023-05-15T00:02:02;5.35;;;3.83;;
9140;SDS011;46330;50.822;7.126;2023-05-15T00:04:30;5.82;;;4.00;;
9140;SDS011;46330;50.822;7.126;2023-05-15T00:06:58;6.65;;;4.00;;
9140;SDS011;46330;50.822;7.126;2023-05-15T00:09:26;6.45;;;4.28;;
9140;SDS011;46330;50.822;7.126;2023-05-15T00:11:55;5.20;;;3.78;;
9140;SDS011;46330;50.822;7.126;2023-05-15T00:14:23;8.00;;;4.20;;
9140;SDS011;46330;50.822;7.126;2023-05-15T00:16:52;7.03;;;4.25;;
9140;SDS011;46330;50.822;7.126;2023-05-15T00:19:20;6.50;;;4.00;;
9140;SDS011;46330;50.822;7.126;2023-05-15T00:21:48;12.45;;;4.22;;
9140;SDS011;46330;50.822;7.126;2023-05-15T00:24:16;8.00;;;4.07;;
9140;SDS011;46330;50.822;7.126;2023-05-15T00:26:44;6.38;;;3.95;;
9140;SDS011;46330;50.822;7.126;2023-05-15T00:29:12;4.93;;;3.97;;
9140;SDS011;46330;50.822;7.126;2023-05-15T00:31:40;14.18;;;3.75;;
9140;SDS011;46330;50.822;7.126;2023-05-15T00:34:09;7.75;;;3.95;;
9140;SDS011;46330;50.822;7.126;2023-05-15T00:36:37;5.15;;;4.13;;
9140;SDS011;46330;50.822;7.126;2023-05-15T00:39:05;8.32;;;4.10;;
9140;SDS011;46330;50.822;7.126;2023-05-15T00:41:33;9.48;;;4.53;;
9140;SDS011;46330;50.822;7.126;2023-05-15T00:44:03;6.18;;;4.43;;
9140;SDS011;46330;50.822;7.126;2023-05-15T00:46:33;7.75;;;4.85;;
9140;SDS011;46330;50.822;7.126;2023-05-15T00:49:02;6.95;;;4.15;;
9140;SDS011;46330;50.822;7.126;2023-05-15T00:51:33;9.02;;;4.20;;
9140;SDS011;46330;50.822;7.126;2023-05-15T00:54:02;6.53;;;4.10;;
9140;SDS011;46330;50.822;7.126;2023-05-15T00:56:30;9.93;;;4.57;;
9140;SDS011;46330;50.822;7.126;2023-05-15T00:58:59;7.50;;;4.72;;
9140;SDS011;46330;50.822;7.126;2023-05-15T01:01:29;6.95;;;4.88;;
9140;SDS011;46330;50.822;7.126;2023-05-15T01:04:01;8.48;;;4.88;;
9140;SDS011;46330;50.822;7.126;2023-05-15T01:06:29;7.70;;;4.78;;
9140;SDS011;46330;50.822;7.126;2023-05-15T01:09:00;6.68;;;4.65;;
9140;SDS011;46330;50.822;7.126;2023-05-15T01:11:31;7.75;;;4.82;;
9140;SDS011;46330;50.822;7.126;2023-05-15T01:14:04;6.80;;;4.60;;
9140;SDS011;46330;50.822;7.126;2023-05-15T01:16:34;7.72;;;5.20;;
9140;SDS011;46330;50.822;7.126;2023-05-15T01:19:02;7.72;;;5.00;;
9140;SDS011;46330;50.822;7.126;2023-05-15T01:24:37;6.97;;;4.35;;
9140;SDS011;46330;50.822;7.126;2023-05-15T01:27:20;6.43;;;4.68;;
9140;SDS011;46330;50.822;7.126;2023-05-15T01:29:58;9.13;;;5.40;;
9140;SDS011;46330;50.822;7.126;2023-05-15T01:32:41;6.28;;;4.85;;
9140;SDS011;46330;50.822;7.126;2023-05-15T01:35:15;6.75;;;4.65;;
9140;SDS011;46330;50.822;7.126;2023-05-15T01:37:51;8.10;;;5.03;;
9140;SDS011;46330;50.822;7.126;2023-05-15T01:40:24;7.13;;;5.13;;
9140;SDS011;46330;50.822;7.126;2023-05-15T01:43:02;9.60;;;4.95;;
9140;SDS011;46330;50.822;7.126;2023-05-15T01:45:34;9.38;;;4.72;;
9140;SDS011;46330;50.822;7.126;2023-05-15T01:48:04;7.80;;;4.60;;
9140;SDS011;46330;50.822;7.126;2023-05-15T01:50:35;9.02;;;5.28;;
9140;SDS011;46330;50.822;7.126;2023-05-15T01:53:06;6.45;;;4.90;;
9140;SDS011;46330;50.822;7.126;2023-05-15T01:55:36;11.50;;;5.32;;
9140;SDS011;46330;50.822;7.126;2023-05-15T01:58:07;6.28;;;4.95;;
9140;SDS011;46330;50.822;7.126;2023-05-15T02:00:35;6.70;;;4.68;;
9140;SDS011;46330;50.822;7.126;2023-05-15T02:03:06;7.50;;;5.00;;
9140;SDS011;46330;50.822;7.126;2023-05-15T02:05:37;8.32;;;5.05;;
9140;SDS011;46330;50.822;7.126;2023-05-15T02:08:05;5.95;;;4.38;;
9140;SDS011;46330;50.822;7.126;2023-05-15T02:10:34;5.78;;;4.57;;
9140;SDS011;46330;50.822;7.126;2023-05-15T02:13:02;6.90;;;4.72;;
9140;SDS011;46330;50.822;7.126;2023-05-15T02:15:33;6.53;;;4.47;;
9140;SDS011;46330;50.822;7.126;2023-05-15T02:18:02;8.25;;;5.10;;
9140;SDS011;46330;50.822;7.126;2023-05-15T02:20:30;7.18;;;4.60;;
9140;SDS011;46330;50.822;7.126;2023-05-15T02:22:58;7.57;;;5.13;;
9140;SDS011;46330;50.822;7.126;2023-05-15T02:25:28;6.68;;;4.45;;
9140;SDS011;46330;50.822;7.126;2023-05-15T02:28:05;6.40;;;4.65;;
9140;SDS011;46330;50.822;7.126;2023-05-15T02:30:39;7.07;;;4.97;;
9140;SDS011;46330;50.822;7.126;2023-05-15T02:33:13;6.68;;;4.75;;
9140;SDS011;46330;50.822;7.126;2023-05-15T02:35:50;7.05;;;5.18;;
9140;SDS011;46330;50.822;7.126;2023-05-15T02:38:24;9.20;;;4.95;;
9140;SDS011;46330;50.822;7.126;2023-05-15T02:40:57;8.70;;;5.38;;
9140;SDS011;46330;50.822;7.126;2023-05-15T02:43:27;8.55;;;5.40;;
9140;SDS011;46330;50.822;7.126;2023-05-15T02:45:56;9.32;;;4.90;;
9140;SDS011;46330;50.822;7.126;2023-05-15T02:48:26;7.13;;;5.07;;
9140;SDS011;46330;50.822;7.126;2023-05-15T02:50:55;8.15;;;5.20;;
9140;SDS011;46330;50.822;7.126;2023-05-15T02:53:23;9.60;;;5.10;;
9140;SDS011;46330;50.822;7.126;2023-05-15T02:55:51;10.18;;;5.63;;
9140;SDS011;46330;50.822;7.126;2023-05-15T02:58:19;8.95;;;5.70;;
9140;SDS011;46330;50.822;7.126;2023-05-15T03:00:47;9.27;;;5.65;;
9140;SDS011;46330;50.822;7.126;2023-05-15T03:03:16;12.10;;;6.30;;
9140;SDS011;46330;50.822;7.126;2023-05-15T03:05:44;10.90;;;6.35;;
9140;SDS011;46330;50.822;7.126;2023-05-15T03:08:13;13.10;;;7.88;;
9140;SDS011;46330;50.822;7.126;2023-05-15T03:10:41;25.15;;;12.48;;
9140;SDS011;46330;50.822;7.126;2023-05-15T03:13:10;35.80;;;16.98;;
9140;SDS011;46330;50.822;7.126;2023-05-15T03:15:37;63.58;;;25.23;;
9140;SDS011;46330;50.822;7.126;2023-05-15T03:18:05;55.15;;;27.63;;
9140;SDS011;46330;50.822;7.126;2023-05-15T03:20:35;66.07;;;29.92;;
9140;SDS011;46330;50.822;7.126;2023-05-15T03:23:03;59.00;;;29.05;;
9140;SDS011;46330;50.822;7.126;2023-05-15T03:25:30;58.13;;;29.00;;
9140;SDS011;46330;50.822;7.126;2023-05-15T03:27:58;61.38;;;28.40;;
9140;SDS011;46330;50.822;7.126;2023-05-15T03:30:26;60.83;;;29.90;;
9140;SDS011;46330;50.822;7.126;2023-05-15T03:32:54;57.67;;;30.65;;
9140;SDS011;46330;50.822;7.126;2023-05-15T03:35:22;71.38;;;33.13;;
9140;SDS011;46330;50.822;7.126;2023-05-15T03:37:53;63.03;;;32.22;;
9140;SDS011;46330;50.822;7.126;2023-05-15T03:40:20;65.28;;;32.88;;
9140;SDS011;46330;50.822;7.126;2023-05-15T03:42:48;68.13;;;32.00;;
9140;SDS011;46330;50.822;7.126;2023-05-15T03:45:18;62.58;;;32.97;;
9140;SDS011;46330;50.822;7.126;2023-05-15T03:47:47;68.00;;;32.85;;
9140;SDS011;46330;50.822;7.126;2023-05-15T03:50:16;68.90;;;32.72;;
9140;SDS011;46330;50.822;7.126;2023-05-15T03:52:44;75.72;;;33.40;;
9140;SDS011;46330;50.822;7.126;2023-05-15T03:55:13;66.68;;;32.15;;
9140;SDS011;46330;50.822;7.126;2023-05-15T03:57:41;68.38;;;34.33;;
9140;SDS011;46330;50.822;7.126;2023-05-15T04:00:09;58.63;;;32.35;;
9140;SDS011;46330;50.822;7.126;2023-05-15T04:02:38;62.50;;;32.88;;
9140;SDS011;46330;50.822;7.126;2023-05-15T04:05:07;66.50;;;33.70;;
9140;SDS011;46330;50.822;7.126;2023-05-15T04:07:36;69.45;;;35.80;;
9140;SDS011;46330;50.822;7.126;2023-05-15T04:10:05;65.80;;;33.97;;
9140;SDS011;46330;50.822;7.126;2023-05-15T04:12:35;65.93;;;33.83;;
9140;SDS011;46330;50.822;7.126;2023-05-15T04:15:22;62.30;;;35.08;;
9140;SDS011;46330;50.822;7.126;2023-05-15T04:17:52;64.95;;;33.50;;
9140;SDS011;46330;50.822;7.126;2023-05-15T04:20:21;72.45;;;34.40;;
9140;SDS011;46330;50.822;7.126;2023-05-15T04:22:50;71.00;;;35.13;;
9140;SDS011;46330;50.822;7.126;2023-05-15T04:25:19;71.47;;;35.58;;
9140;SDS011;46330;50.822;7.126;2023-05-15T04:27:48;64.05;;;33.75;;
9140;SDS011;46330;50.822;7.126;2023-05-15T04:30:16;66.07;;;33.28;;
9140;SDS011;46330;50.822;7.126;2023-05-15T04:32:44;67.50;;;33.80;;
9140;SDS011;46330;50.822;7.126;2023-05-15T04:35:12;67.63;;;34.40;;
9140;SDS011;46330;50.822;7.126;2023-05-15T04:37:41;67.07;;;33.53;;
9140;SDS011;46330;50.822;7.126;2023-05-15T04:40:11;62.83;;;34.63;;
9140;SDS011;46330;50.822;7.126;2023-05-15T04:42:41;68.38;;;34.92;;
9140;SDS011;46330;50.822;7.126;2023-05-15T04:45:10;67.68;;;34.80;;
9140;SDS011;46330;50.822;7.126;2023-05-15T04:47:40;70.88;;;37.22;;
9140;SDS011;46330;50.822;7.126;2023-05-15T04:50:09;69.68;;;36.22;;
9140;SDS011;46330;50.822;7.126;2023-05-15T04:52:37;65.03;;;35.88;;
9140;SDS011;46330;50.822;7.126;2023-05-15T04:55:05;70.28;;;35.72;;
9140;SDS011;46330;50.822;7.126;2023-05-15T04:57:33;65.93;;;35.85;;
9140;SDS011;46330;50.822;7.126;2023-05-15T05:00:02;70.65;;;37.40;;
9140;SDS011;46330;50.822;7.126;2023-05-15T05:02:36;70.20;;;37.63;;
9140;SDS011;46330;50.822;7.126;2023-05-15T05:05:05;70.63;;;37.83;;
9140;SDS011;46330;50.822;7.126;2023-05-15T05:07:34;62.42;;;35.92;;
9140;SDS011;46330;50.822;7.126;2023-05-15T05:10:02;64.22;;;36.60;;
9140;SDS011;46330;50.822;7.126;2023-05-15T05:12:31;60.45;;;34.67;;
9140;SDS011;46330;50.822;7.126;2023-05-15T05:14:59;63.45;;;35.17;;
9140;SDS011;46330;50.822;7.126;2023-05-15T05:17:28;64.82;;;35.53;;
9140;SDS011;46330;50.822;7.126;2023-05-15T05:19:57;64.30;;;35.72;;
9140;SDS011;46330;50.822;7.126;2023-05-15T05:22:25;56.95;;;34.10;;
9140;SDS011;46330;50.822;7.126;2023-05-15T05:24:53;62.63;;;33.75;;
9140;SDS011;46330;50.822;7.126;2023-05-15T05:27:21;60.22;;;34.83;;
9140;SDS011;46330;50.822;7.126;2023-05-15T05:29:49;60.65;;;33.58;;
9140;SDS011;46330;50.822;7.126;2023-05-15T05:32:18;52.45;;;32.20;;
9140;SDS011;46330;50.822;7.126;2023-05-15T05:34:46;53.30;;;32.17;;
9140;SDS011;46330;50.822;7.126;2023-05-15T05:37:15;50.60;;;31.48;;
9140;SDS011;46330;50.822;7.126;2023-05-15T05:39:43;51.20;;;32.47;;
9140;SDS011;46330;50.822;7.126;2023-05-15T05:42:12;56.10;;;33.72;;
9140;SDS011;46330;50.822;7.126;2023-05-15T05:44:40;52.20;;;34.33;;
9140;SDS011;46330;50.822;7.126;2023-05-15T05:47:07;57.85;;;35.22;;
9140;SDS011;46330;50.822;7.126;2023-05-15T05:49:35;53.78;;;34.60;;
9140;SDS011;46330;50.822;7.126;2023-05-15T05:52:06;54.60;;;34.55;;
9140;SDS011;46330;50.822;7.126;2023-05-15T05:54:36;57.85;;;34.78;;
9140;SDS011;46330;50.822;7.126;2023-05-15T05:57:04;59.35;;;36.33;;
9140;SDS011;46330;50.822;7.126;2023-05-15T05:59:33;64.78;;;35.88;;
9140;SDS011;46330;50.822;7.126;2023-05-15T06:02:01;57.55;;;33.72;;
9140;SDS011;46330;50.822;7.126;2023-05-15T06:04:30;58.13;;;36.38;;
9140;SDS011;46330;50.822;7.126;2023-05-15T06:07:00;55.45;;;35.03;;
9140;SDS011;46330;50.822;7.126;2023-05-15T06:09:29;63.20;;;36.28;;
9140;SDS011;46330;50.822;7.126;2023-05-15T06:11:58;65.25;;;36.03;;
9140;SDS011;46330;50.822;7.126;2023-05-15T06:14:29;62.72;;;36.03;;
9140;SDS011;46330;50.822;7.126;2023-05-15T06:16:57;65.55;;;37.10;;
9140;SDS011;46330;50.822;7.126;2023-05-15T06:19:25;65.95;;;37.85;;
9140;SDS011;46330;50.822;7.126;2023-05-15T06:21:53;63.95;;;37.95;;
9140;SDS011;46330;50.822;7.126;2023-05-15T06:24:21;67.40;;;37.70;;
9140;SDS011;46330;50.822;7.126;2023-05-15T06:26:49;62.33;;;36.30;;
9140;SDS011;46330;50.822;7.126;2023-05-15T06:29:19;61.17;;;37.10;;
9140;SDS011;46330;50.822;7.126;2023-05-15T06:31:47;63.75;;;37.25;;
9140;SDS011;46330;50.822;7.126;2023-05-15T06:34:15;59.40;;;36.03;;
9140;SDS011;46330;50.822;7.126;2023-05-15T06:36:43;63.70;;;36.08;;
9140;SDS011;46330;50.822;7.126;2023-05-15T06:39:11;62.58;;;36.83;;
9140;SDS011;46330;50.822;7.126;2023-05-15T06:41:39;58.33;;;35.35;;
9140;SDS011;46330;50.822;7.126;2023-05-15T06:44:11;56.45;;;34.58;;
9140;SDS011;46330;50.822;7.126;2023-05-15T06:46:40;55.00;;;34.67;;
9140;SDS011;46330;50.822;7.126;2023-05-15T06:49:08;54.30;;;32.72;;
9140;SDS011;46330;50.822;7.126;2023-05-15T06:51:35;57.17;;;34.88;;
9140;SDS011;46330;50.822;7.126;2023-05-15T06:54:03;55.88;;;33.85;;
9140;SDS011;46330;50.822;7.126;2023-05-15T06:56:31;52.50;;;33.40;;
9140;SDS011;46330;50.822;7.126;2023-05-15T06:58:59;48.28;;;32.33;;
9140;SDS011;46330;50.822;7.126;2023-05-15T07:01:27;55.97;;;36.08;;
9140;SDS011;46330;50.822;7.126;2023-05-15T07:03:56;50.72;;;34.20;;
9140;SDS011;46330;50.822;7.126;2023-05-15T07:06:24;50.30;;;33.28;;
9140;SDS011;46330;50.822;7.126;2023-05-15T07:08:52;52.40;;;33.10;;
9140;SDS011;46330;50.822;7.126;2023-05-15T07:11:20;48.47;;;31.90;;
9140;SDS011;46330;50.822;7.126;2023-05-15T07:13:48;45.72;;;30.48;;
9140;SDS011;46330;50.822;7.126;2023-05-15T07:16:18;49.78;;;31.23;;
9140;SDS011;46330;50.822;7.126;2023-05-15T07:18:45;49.95;;;32.10;;
9140;SDS011;46330;50.822;7.126;2023-05-15T07:21:15;51.78;;;32.17;;
9140;SDS011;46330;50.822;7.126;2023-05-15T07:23:43;48.55;;;31.52;;
9140;SDS011;46330;50.822;7.126;2023-05-15T07:26:12;51.17;;;32.92;;
9140;SDS011;46330;50.822;7.126;2023-05-15T07:28:53;51.30;;;33.33;;
9140;SDS011;46330;50.822;7.126;2023-05-15T07:31:21;50.38;;;34.72;;
9140;SDS011;46330;50.822;7.126;2023-05-15T07:33:48;51.90;;;32.53;;
9140;SDS011;46330;50.822;7.126;2023-05-15T07:36:18;46.78;;;31.92;;
9140;SDS011;46330;50.822;7.126;2023-05-15T07:38:45;56.22;;;32.47;;
9140;SDS011;46330;50.822;7.126;2023-05-15T07:41:13;51.80;;;33.75;;
9140;SDS011;46330;50.822;7.126;2023-05-15T07:43:41;54.97;;;31.38;;
9140;SDS011;46330;50.822;7.126;2023-05-15T07:46:09;52.58;;;32.95;;
9140;SDS011;46330;50.822;7.126;2023-05-15T07:48:37;54.55;;;33.72;;
9140;SDS011;46330;50.822;7.126;2023-05-15T07:51:05;52.38;;;32.13;;
9140;SDS011;46330;50.822;7.126;2023-05-15T07:53:34;52.92;;;32.17;;
9140;SDS011;46330;50.822;7.126;2023-05-15T07:56:02;53.67;;;33.25;;
9140;SDS011;46330;50.822;7.126;2023-05-15T07:58:30;50.42;;;31.40;;
9140;SDS011;46330;50.822;7.126;2023-05-15T08:01:00;52.50;;;33.55;;
9140;SDS011;46330;50.822;7.126;2023-05-15T08:03:28;56.28;;;33.05;;
9140;SDS011;46330;50.822;7.126;2023-05-15T08:05:56;54.22;;;33.42;;
9140;SDS011;46330;50.822;7.126;2023-05-15T08:08:24;50.22;;;32.40;;
9140;SDS011;46330;50.822;7.126;2023-05-15T08:10:54;49.40;;;33.03;;
9140;SDS011;46330;50.822;7.126;2023-05-15T08:13:22;47.92;;;31.23;;
9140;SDS011;46330;50.822;7.126;2023-05-15T08:15:50;55.33;;;32.78;;
9140;SDS011;46330;50.822;7.126;2023-05-15T08:18:19;52.00;;;32.70;;
9140;SDS011;46330;50.822;7.126;2023-05-15T08:20:47;48.85;;;32.05;;
9140;SDS011;46330;50.822;7.126;2023-05-15T08:23:15;48.60;;;32.13;;
9140;SDS011;46330;50.822;7.126;2023-05-15T08:25:43;48.45;;;32.78;;
9140;SDS011;46330;50.822;7.126;2023-05-15T08:28:12;53.67;;;32.05;;
9140;SDS011;46330;50.822;7.126;2023-05-15T08:30:40;48.03;;;33.20;;
9140;SDS011;46330;50.822;7.126;2023-05-15T08:33:09;54.78;;;33.00;;
9140;SDS011;46330;50.822;7.126;2023-05-15T08:35:37;51.00;;;33.00;;
9140;SDS011;46330;50.822;7.126;2023-05-15T08:38:05;52.60;;;32.90;;
9140;SDS011;46330;50.822;7.126;2023-05-15T08:40:33;50.15;;;31.70;;
9140;SDS011;46330;50.822;7.126;2023-05-15T08:43:07;49.10;;;31.95;;
9140;SDS011;46330;50.822;7.126;2023-05-15T08:45:42;50.97;;;31.73;;
9140;SDS011;46330;50.822;7.126;2023-05-15T08:48:12;51.90;;;31.30;;
9140;SDS011;46330;50.822;7.126;2023-05-15T08:50:43;51.97;;;32.72;;
9140;SDS011;46330;50.822;7.126;2023-05-15T08:53:11;47.90;;;32.38;;
9140;SDS011;46330;50.822;7.126;2023-05-15T08:55:39;48.80;;;33.78;;
9140;SDS011;46330;50.822;7.126;2023-05-15T08:58:08;48.20;;;33.03;;
9140;SDS011;46330;50.822;7.126;2023-05-15T09:00:38;49.28;;;30.42;;
9140;SDS011;46330;50.822;7.126;2023-05-15T09:03:08;48.40;;;32.25;;
9140;SDS011;46330;50.822;7.126;2023-05-15T09:05:40;55.40;;;32.40;;
9140;SDS011;46330;50.822;7.126;2023-05-15T09:08:09;49.53;;;31.75;;
9140;SDS011;46330;50.822;7.126;2023-05-15T09:10:37;52.92;;;32.00;;
9140;SDS011;46330;50.822;7.126;2023-05-15T09:13:06;52.90;;;32.88;;
9140;SDS011;46330;50.822;7.126;2023-05-15T09:15:39;50.08;;;32.40;;
9140;SDS011;46330;50.822;7.126;2023-05-15T09:18:07;50.78;;;32.58;;
9140;SDS011;46330;50.822;7.126;2023-05-15T09:20:37;50.83;;;32.40;;
9140;SDS011;46330;50.822;7.126;2023-05-15T09:23:05;53.20;;;33.38;;
9140;SDS011;46330;50.822;7.126;2023-05-15T09:25:50;45.92;;;30.77;;
9140;SDS011;46330;50.822;7.126;2023-05-15T09:28:25;46.03;;;32.40;;
9140;SDS011;46330;50.822;7.126;2023-05-15T09:31:00;45.83;;;31.02;;
9140;SDS011;46330;50.822;7.126;2023-05-15T09:33:30;49.25;;;31.73;;
9140;SDS011;46330;50.822;7.126;2023-05-15T09:35:59;46.13;;;30.77;;
9140;SDS011;46330;50.822;7.126;2023-05-15T09:38:28;41.55;;;30.70;;
9140;SDS011;46330;50.822;7.126;2023-05-15T09:41:02;45.45;;;33.38;;
9140;SDS011;46330;50.822;7.126;2023-05-15T09:43:32;45.28;;;32.00;;
9140;SDS011;46330;50.822;7.126;2023-05-15T09:46:02;44.08;;;30.80;;
9140;SDS011;46330;50.822;7.126;2023-05-15T09:48:31;43.67;;;30.80;;
9140;SDS011;46330;50.822;7.126;2023-05-15T09:51:00;45.47;;;31.25;;
9140;SDS011;46330;50.822;7.126;2023-05-15T09:53:31;38.75;;;29.65;;
9140;SDS011;46330;50.822;7.126;2023-05-15T09:55:59;42.80;;;28.27;;
9140;SDS011;46330;50.822;7.126;2023-05-15T09:58:27;37.85;;;27.50;;
9140;SDS011;46330;50.822;7.126;2023-05-15T10:00:56;30.88;;;25.45;;
9140;SDS011;46330;50.822;7.126;2023-05-15T10:03:27;30.30;;;24.85;;
9140;SDS011;46330;50.822;7.126;2023-05-15T10:05:58;28.90;;;22.58;;
9140;SDS011;46330;50.822;7.126;2023-05-15T10:08:27;28.00;;;22.63;;
9140;SDS011;46330;50.822;7.126;2023-05-15T10:10:57;28.85;;;23.35;;
9140;SDS011;46330;50.822;7.126;2023-05-15T10:13:26;28.73;;;22.80;;
9140;SDS011;46330;50.822;7.126;2023-05-15T10:15:59;26.98;;;23.17;;
9140;SDS011;46330;50.822;7.126;2023-05-15T10:18:30;31.98;;;23.92;;
9140;SDS011;46330;50.822;7.126;2023-05-15T10:21:02;27.80;;;23.85;;
9140;SDS011;46330;50.822;7.126;2023-05-15T10:23:31;35.03;;;24.33;;
9140;SDS011;46330;50.822;7.126;2023-05-15T10:26:05;26.30;;;22.67;;
9140;SDS011;46330;50.822;7.126;2023-05-15T10:31:09;26.50;;;20.75;;
9140;SDS011;46330;50.822;7.126;2023-05-15T10:33:39;31.17;;;21.83;;
9140;SDS011;46330;50.822;7.126;2023-05-15T10:36:07;29.45;;;21.70;;
9140;SDS011;46330;50.822;7.126;2023-05-15T10:38:36;27.80;;;20.73;;
9140;SDS011;46330;50.822;7.126;2023-05-15T10:41:06;25.80;;;19.98;;
9140;SDS011;46330;50.822;7.126;2023-05-15T10:43:43;26.88;;;20.02;;
9140;SDS011;46330;50.822;7.126;2023-05-15T10:46:12;24.85;;;19.75;;
9140;SDS011;46330;50.822;7.126;2023-05-15T10:48:42;29.75;;;20.15;;
9140;SDS011;46330;50.822;7.126;2023-05-15T10:51:14;25.02;;;19.15;;
9140;SDS011;46330;50.822;7.126;2023-05-15T10:53:43;21.27;;;18.02;;
9140;SDS011;46330;50.822;7.126;2023-05-15T10:56:12;21.95;;;18.27;;
9140;SDS011;46330;50.822;7.126;2023-05-15T10:58:45;20.50;;;16.70;;
9140;SDS011;46330;50.822;7.126;2023-05-15T11:01:24;21.70;;;15.60;;
9140;SDS011;46330;50.822;7.126;2023-05-15T11:04:07;21.02;;;15.85;;
9140;SDS011;46330;50.822;7.126;2023-05-15T11:06:38;21.88;;;16.15;;
9140;SDS011;46330;50.822;7.126;2023-05-15T11:12:04;19.15;;;14.02;;
9140;SDS011;46330;50.822;7.126;2023-05-15T11:14:34;17.60;;;14.70;;
9140;SDS011;46330;50.822;7.126;2023-05-15T11:17:05;17.83;;;13.07;;
9140;SDS011;46330;50.822;7.126;2023-05-15T11:19:36;16.02;;;12.77;;
9140;SDS011;46330;50.822;7.126;2023-05-15T11:22:15;14.52;;;11.98;;
9140;SDS011;46330;50.822;7.126;2023-05-15T11:24:50;15.85;;;11.80;;
9140;SDS011;46330;50.822;7.126;2023-05-15T11:27:20;15.52;;;11.05;;
9140;SDS011;46330;50.822;7.126;2023-05-15T11:30:05;11.85;;;9.75;;
9140;SDS011;46330;50.822;7.126;2023-05-15T11:32:48;13.02;;;9.07;;
9140;SDS011;46330;50.822;7.126;2023-05-15T11:35:19;14.70;;;9.05;;
9140;SDS011;46330;50.822;7.126;2023-05-15T11:37:49;12.38;;;8.93;;
9140;SDS011;46330;50.822;7.126;2023-05-15T11:40:20;11.50;;;9.00;;
9140;SDS011;46330;50.822;7.126;2023-05-15T11:43:00;13.05;;;9.60;;
9140;SDS011;46330;50.822;7.126;2023-05-15T11:45:30;14.25;;;9.55;;
9140;SDS011;46330;50.822;7.126;2023-05-15T11:48:00;15.30;;;11.00;;
9140;SDS011;46330;50.822;7.126;2023-05-15T11:50:32;17.13;;;10.23;;
9140;SDS011;46330;50.822;7.126;2023-05-15T11:53:02;12.07;;;9.75;;
9140;SDS011;46330;50.822;7.126;2023-05-15T11:55:32;15.20;;;10.10;;
9140;SDS011;46330;50.822;7.126;2023-05-15T11:58:01;10.88;;;8.20;;
9140;SDS011;46330;50.822;7.126;2023-05-15T12:00:30;12.35;;;7.47;;
9140;SDS011;46330;50.822;7.126;2023-05-15T12:02:58;12.07;;;7.32;;
9140;SDS011;46330;50.822;7.126;2023-05-15T12:05:29;11.43;;;6.70;;
9140;SDS011;46330;50.822;7.126;2023-05-15T12:07:58;9.75;;;6.18;;
9140;SDS011;46330;50.822;7.126;2023-05-15T12:10:28;12.48;;;6.45;;
9140;SDS011;46330;50.822;7.126;2023-05-15T12:12:56;10.95;;;7.15;;
9140;SDS011;46330;50.822;7.126;2023-05-15T12:15:26;12.27;;;6.95;;
9140;SDS011;46330;50.822;7.126;2023-05-15T12:17:55;9.43;;;6.18;;
9140;SDS011;46330;50.822;7.126;2023-05-15T12:20:23;12.98;;;7.22;;
9140;SDS011;46330;50.822;7.126;2023-05-15T12:22:51;11.38;;;8.07;;
9140;SDS011;46330;50.822;7.126;2023-05-15T12:25:20;11.90;;;7.55;;
9140;SDS011;46330;50.822;7.126;2023-05-15T12:27:49;10.88;;;7.30;;
9140;SDS011;46330;50.822;7.126;2023-05-15T12:30:17;12.15;;;6.88;;
9140;SDS011;46330;50.822;7.126;2023-05-15T12:32:45;12.07;;;6.75;;
9140;SDS011;46330;50.822;7.126;2023-05-15T12:35:14;11.52;;;6.53;;
9140;SDS011;46330;50.822;7.126;2023-05-15T12:37:42;13.00;;;6.47;;
9140;SDS011;46330;50.822;7.126;2023-05-15T12:40:12;8.15;;;6.30;;
9140;SDS011;46330;50.822;7.126;2023-05-15T12:42:42;8.43;;;6.18;;
9140;SDS011;46330;50.822;7.126;2023-05-15T12:45:11;9.70;;;5.72;;
9140;SDS011;46330;50.822;7.126;2023-05-15T12:47:41;9.43;;;5.22;;
9140;SDS011;46330;50.822;7.126;2023-05-15T12:50:14;5.45;;;4.20;;
9140;SDS011;46330;50.822;7.126;2023-05-15T12:52:49;6.63;;;5.00;;
9140;SDS011;46330;50.822;7.126;2023-05-15T12:55:21;7.47;;;5.07;;
9140;SDS011;46330;50.822;7.126;2023-05-15T12:57:52;8.27;;;5.30;;
9140;SDS011;46330;50.822;7.126;2023-05-15T13:00:23;9.88;;;5.53;;
9140;SDS011;46330;50.822;7.126;2023-05-15T13:02:52;6.72;;;4.72;;
9140;SDS011;46330;50.822;7.126;2023-05-15T13:05:21;6.72;;;4.22;;
9140;SDS011;46330;50.822;7.126;2023-05-15T13:07:50;6.88;;;4.40;;
9140;SDS011;46330;50.822;7.126;2023-05-15T13:10:19;7.97;;;4.45;;
9140;SDS011;46330;50.822;7.126;2023-05-15T13:12:49;8.82;;;4.93;;
9140;SDS011;46330;50.822;7.126;2023-05-15T13:15:23;6.13;;;4.78;;
9140;SDS011;46330;50.822;7.126;2023-05-15T13:17:53;6.47;;;4.38;;
9140;SDS011;46330;50.822;7.126;2023-05-15T13:20:25;8.02;;;4.57;;
9140;SDS011;46330;50.822;7.126;2023-05-15T13:22:54;8.27;;;4.85;;
9140;SDS011;46330;50.822;7.126;2023-05-15T13:25:22;9.63;;;4.60;;
9140;SDS011;46330;50.822;7.126;2023-05-15T13:27:50;8.93;;;5.00;;
9140;SDS011;46330;50.822;7.126;2023-05-15T13:30:18;9.20;;;5.40;;
9140;SDS011;46330;50.822;7.126;2023-05-15T13:32:48;8.95;;;6.65;;
9140;SDS011;46330;50.822;7.126;2023-05-15T13:35:18;9.45;;;5.60;;
9140;SDS011;46330;50.822;7.126;2023-05-15T13:37:46;9.38;;;5.40;;
9140;SDS011;46330;50.822;7.126;2023-05-15T13:40:14;5.97;;;4.43;;
9140;SDS011;46330;50.822;7.126;2023-05-15T13:42:43;6.75;;;4.13;;
9140;SDS011;46330;50.822;7.126;2023-05-15T13:45:11;6.03;;;4.30;;
9140;SDS011;46330;50.822;7.126;2023-05-15T13:47:40;5.45;;;4.28;;
9140;SDS011;46330;50.822;7.126;2023-05-15T13:50:12;8.18;;;5.25;;
9140;SDS011;46330;50.822;7.126;2023-05-15T13:52:41;11.55;;;5.80;;
9140;SDS011;46330;50.822;7.126;2023-05-15T13:55:09;8.48;;;5.28;;
9140;SDS011;46330;50.822;7.126;2023-05-15T13:57:38;8.10;;;5.63;;
9140;SDS011;46330;50.822;7.126;2023-05-15T14:00:07;7.43;;;5.30;;
9140;SDS011;46330;50.822;7.126;2023-05-15T14:02:38;7.90;;;5.72;;
9140;SDS011;46330;50.822;7.126;2023-05-15T14:05:06;7.05;;;5.53;;
9140;SDS011;46330;50.822;7.126;2023-05-15T14:07:36;9.43;;;6.00;;
9140;SDS011;46330;50.822;7.126;2023-05-15T14:10:05;9.55;;;6.03;;
9140;SDS011;46330;50.822;7.126;2023-05-15T14:12:34;8.38;;;5.60;;
9140;SDS011;46330;50.822;7.126;2023-05-15T14:15:02;9.13;;;5.70;;
9140;SDS011;46330;50.822;7.126;2023-05-15T14:17:31;7.47;;;5.00;;
9140;SDS011;46330;50.822;7.126;2023-05-15T14:19:59;8.30;;;4.65;;
9140;SDS011;46330;50.822;7.126;2023-05-15T14:22:27;7.88;;;5.28;;
9140;SDS011;46330;50.822;7.126;2023-05-15T14:24:57;9.98;;;6.28;;
9140;SDS011;46330;50.822;7.126;2023-05-15T14:27:24;10.63;;;7.20;;
9140;SDS011;46330;50.822;7.126;2023-05-15T14:29:52;12.32;;;5.85;;
9140;SDS011;46330;50.822;7.126;2023-05-15T14:32:22;8.27;;;5.70;;
9140;SDS011;46330;50.822;7.126;2023-05-15T14:34:50;8.93;;;6.18;;
9140;SDS011;46330;50.822;7.126;2023-05-15T14:37:34;9.38;;;5.80;;
9140;SDS011;46330;50.822;7.126;2023-05-15T14:40:05;7.05;;;5.32;;
9140;SDS011;46330;50.822;7.126;2023-05-15T14:42:34;5.50;;;4.65;;
9140;SDS011;46330;50.822;7.126;2023-05-15T14:45:02;6.93;;;4.38;;
9140;SDS011;46330;50.822;7.126;2023-05-15T14:47:30;5.97;;;4.47;;
9140;SDS011;46330;50.822;7.126;2023-05-15T14:49:59;6.22;;;5.00;;
9140;SDS011;46330;50.822;7.126;2023-05-15T14:52:27;7.60;;;5.78;;
9140;SDS011;46330;50.822;7.126;2023-05-15T14:54:56;8.95;;;6.20;;
9140;SDS011;46330;50.822;7.126;2023-05-15T14:57:36;10.20;;;6.50;;
9140;SDS011;46330;50.822;7.126;2023-05-15T15:00:05;9.65;;;7.45;;
9140;SDS011;46330;50.822;7.126;2023-05-15T15:02:34;14.40;;;8.00;;
9140;SDS011;46330;50.822;7.126;2023-05-15T15:05:03;14.27;;;9.23;;
9140;SDS011;46330;50.822;7.126;2023-05-15T15:10:27;19.45;;;12.35;;
9140;SDS011;46330;50.822;7.126;2023-05-15T15:12:56;16.52;;;13.50;;